West Dade, Florida
Current Conditions -  °F | °C
As of 10:53 PM on Saturday 22 Nov 2014 (Local Time) from KTMB Reporting Station
Broken Clouds Broken Clouds  
Wind Chill: 24°   Ceiling: 4700
Heat Index: 24°   Visibility: 10mi
Dew Point: 22°   Wind: 14mph
Humidity: 87%   Direction: 110°ESE
Pressure: 30.08"   Gusts: 21mph
Location:  25.5736°N, 80.7073°W
Report Text: KTMB 230353Z 11012G18KT 10SM FEW020 SCT026 BKN047 24/22 A3008 RMK AO2 SLP184 T02440222
Loading
Personal Weather Stations






























Interactive Weather Map New forecast layout! Learn more

10-Day Weather Forecast

Advertisements
Track Severe Weather on mobile